Aérodrome :







RETROUVEZ-NOUS SUR...

 
LOGIN :

S'inscrire | Disclaimer

   EN    FR    IT 

 









Légende :    VFR   VFR Marginal   IFR   IFR Intensif   IFR Très Intensif
Visi : 
Plafond : 
>= 8 km
>= 3000ft
5 à 8 km
1000 à 3000 ft
1500m à 5 km
500 à 1000 ft
800 à 1500m
200 à 500 ft
< 800m
< 200 ft
Symboles :   Orages  Brouillard  Fortes neiges  Fortes précipitations  Vent > 20 kt






- Altitude de l'aérodrome : 83 ft


KBHB - Hancock County-Bar Harbor

DERNIER METAR :
  • 241208Z AUTO 00000KT 1/2SM FZFG OVC002 M04/M05 A3003 RMK AO2 FZRANO RVRNO

METARs EXPIRÉS :
  • 241156Z AUTO 33004KT 1/4SM FZFG OVC002 M04/M05 A3003 RMK AO2 SLP170 T10391050 11039 21050 53002 FZRANO RVRNO
  • 241130Z AUTO 34003KT 1/4SM FZFG OVC002 M04/M05 A3001 RMK AO2 FZRANO RVRNO
  • 241115Z AUTO 35003KT 1/2SM FZFG OVC002 M04/M06 A3002 RMK AO2 FZRANO RVRNO
  • 241056Z AUTO 34004KT 2 1/2SM BR OVC002 M04/M06 A3002 RMK AO2 VIS 2V3 SLP168 T10441056 FZRANO
  • 241028Z AUTO 34003KT 1/4SM FZFG OVC002 M04/M06 A3003 RMK AO2 FZRANO RVRNO
  • 241022Z AUTO 34003KT 3/4SM BR OVC002 M04/M06 A3003 RMK AO2 CIG 001V006 FZRANO RVRNO
  • 241006Z AUTO 33003KT 2 1/2SM BR BKN004 M04/M06 A3002 RMK AO2 VIS 1 1/4V5 CIG 001V007 FZRANO
  • 240956Z AUTO 34003KT 6SM BR SCT004 M04/M06 A3003 RMK AO2 SLP170 T10441056 FZRANO

TAF KBHB
Valide du 24 à 12h jusqu'au 25 à 12h UTC


241120Z 2412/2512 23005KT 2SM BR BKN002
FM241300 23005KT P6SM FEW090
FM250000 23006KT P6SM FEW100
FM250400 29003KT P6SM SCT100
FM250800 02003KT P6SM BKN090



MET'MAP, la Météo Aéronautique d'un coup d'oeil ! - Copyright ORBIFLY Décembre 2007 - Disclaimer

ORBIFLY MET'MAP TEAM :

Programmation & Développement : Alexandra Zaïnal
Sur une idée originale de : Baudouin d'Aumeries
Assistance à la programmation : Marc-Olivier Méhu
Soutien technique & logistique : Manuel Goepfert

Contact : metmap@orbifly.com




SOURCES & CREDITS :

   NOAA